Time;durP1;ratioP1;P1;durP2;ratioP2;P2;SDS_P1;SDS_P2;PMS_P1;PMS_P2;Temp;Humidity;BMP_temperature;BMP_pressure;BME280_temperature;BME280_humidity;BME280_pressure;Samples;Min_cycle;Max_cycle;Signal;HPM_P1;HPM_P2
2022/11/30 00:01:14;;;;;;;13.70;9.10;;;;;;;-1.20;97.33;100919.75;106687;1288;22380;-60
2022/11/30 00:03:41;;;;;;;20.60;9.90;;;;;;;-1.23;97.14;100917.84;106576;1299;22101;-60
2022/11/30 00:06:08;;;;;;;;;;;;;;;-1.27;97.17;100916.98;106695;1305;22430;-60
2022/11/30 00:08:35;;;;;;;14.00;9.10;;;;;;;-1.28;96.95;100916.61;106542;1297;125931;-60
2022/11/30 00:11:12;;;;;;;13.70;7.40;;;;;;;-1.30;97.22;100911.94;106578;1305;22129;-60
2022/11/30 00:13:39;;;;;;;16.70;8.60;;;;;;;-1.30;97.09;100913.42;106522;1300;139744;-61
2022/11/30 00:16:07;;;;;;;17.10;8.80;;;;;;;-1.31;97.21;100909.42;106528;1300;22205;-60
2022/11/30 00:18:34;;;;;;;14.00;9.10;;;;;;;-1.31;97.14;100915.44;106616;1298;22129;-60
2022/11/30 00:21:01;;;;;;;14.20;8.20;;;;;;;-1.32;97.44;100913.06;106399;1298;139828;-60
2022/11/30 00:23:35;;;;;;;15.80;7.70;;;;;;;-1.34;97.19;100912.33;106619;1300;22120;-60
2022/11/30 00:26:03;;;;;;;15.10;8.40;;;;;;;-1.35;97.36;100912.61;106615;1306;139531;-60
2022/11/30 00:28:30;;;;;;;13.20;7.10;;;;;;;-1.37;97.17;100915.46;106585;1305;22155;-60
2022/11/30 00:31:04;;;;;;;20.50;7.90;;;;;;;-1.37;97.27;100917.14;106648;1290;22148;-60
2022/11/30 00:33:32;;;;;;;16.70;8.70;;;;;;;-1.38;97.47;100915.91;106599;1304;139913;-60
2022/11/30 00:36:00;;;;;;;13.20;7.40;;;;;;;-1.38;97.15;100915.02;106693;1305;22506;-60
2022/11/30 00:38:27;;;;;;;12.80;7.80;;;;;;;-1.38;97.57;100914.89;106506;1304;139908;-60
2022/11/30 00:40:55;;;;;;;;;;;;;;;-1.38;97.38;100910.09;106616;1280;22480;-60
2022/11/30 00:43:22;;;;;;;12.00;7.50;;;;;;;-1.38;97.58;100912.04;106416;1305;125645;-59
2022/11/30 00:45:49;;;;;;;10.80;7.80;;;;;;;-1.38;97.61;100913.49;106635;1305;22234;-60
2022/11/30 00:48:16;;;;;;;;;;;;;;;-1.40;97.57;100910.83;106644;1306;22457;-60
2022/11/30 00:50:42;;;;;;;10.20;6.30;;;;;;;-1.42;97.53;100908.09;106551;1305;126328;-60
2022/11/30 00:53:09;;;;;;;;;;;;;;;-1.43;97.46;100907.27;106634;1305;22488;-60
2022/11/30 00:55:36;;;;;;;12.80;7.10;;;;;;;-1.46;97.76;100900.85;106505;1300;124987;-60
2022/11/30 00:58:03;;;;;;;12.10;6.80;;;;;;;-1.45;97.58;100900.52;106639;1296;22179;-60
2022/11/30 01:00:29;;;;;;;;;;;;;;;-1.47;97.68;100900.90;106641;1297;23225;-60
2022/11/30 01:02:58;;;;;;;10.60;5.80;;;;;;;-1.49;97.56;100895.29;106516;1297;126355;-60
2022/11/30 01:05:25;;;;;;;14.00;6.70;;;;;;;-1.51;97.61;100897.04;106687;1305;22190;-60
2022/11/30 01:07:51;;;;;;;;;;;;;;;-1.52;97.55;100896.47;106495;1306;140161;-60
2022/11/30 01:10:18;;;;;;;16.70;7.50;;;;;;;-1.52;97.72;100892.16;106638;1306;22129;-60
2022/11/30 01:12:45;;;;;;;;;;;;;;;-1.51;97.59;100889.77;106570;1291;22313;-60
2022/11/30 01:15:12;;;;;;;14.90;7.70;;;;;;;-1.51;97.76;100890.11;106463;1305;124957;-60
2022/11/30 01:17:38;;;;;;;11.40;6.60;;;;;;;-1.57;97.59;100877.84;106571;1304;22913;-60
2022/11/30 01:20:07;;;;;;;12.70;6.90;;;;;;;-1.52;97.67;100881.85;106493;1305;139356;-60
2022/11/30 01:22:34;;;;;;;13.40;7.90;;;;;;;-1.52;97.62;100875.94;106725;1306;22924;-60
2022/11/30 01:25:01;;;;;;;;;;;;;;;-1.52;97.56;100882.34;106696;1306;22435;-60
2022/11/30 01:27:28;;;;;;;11.10;7.00;;;;;;;-1.52;97.50;100879.88;106541;1299;125479;-61
2022/11/30 01:29:54;;;;;;;;;;;;;;;-1.53;97.48;100877.59;106603;1297;22373;-60
2022/11/30 01:32:21;;;;;;;15.60;7.00;;;;;;;-1.53;97.27;100876.02;106516;1306;124498;-60
2022/11/30 01:34:48;;;;;;;12.20;7.00;;;;;;;-1.53;97.24;100873.88;106649;1305;22139;-59
2022/11/30 01:37:15;;;;;;;14.50;8.20;;;;;;;-1.52;97.27;100873.96;102968;1312;139944;-58
2022/11/30 01:39:42;;;;;;;18.20;9.30;;;;;;;-1.50;97.07;100873.98;102398;1313;22852;-59
2022/11/30 01:42:15;;;;;;;;;;;;;;;-1.49;97.07;100871.01;102388;1298;22574;-59
2022/11/30 01:44:53;;;;;;;18.40;8.40;;;;;;;-1.47;97.07;100863.89;106345;1313;124504;-59
2022/11/30 01:47:23;;;;;;;19.10;10.70;;;;;;;-1.46;97.28;100867.15;106632;1305;22220;-60
2022/11/30 01:49:56;;;;;;;19.60;11.90;;;;;;;-1.45;97.08;100870.45;106421;1306;139744;-60
2022/11/30 01:52:32;;;;;;;18.00;10.80;;;;;;;-1.45;97.03;100870.59;106518;1305;22291;-60
2022/11/30 01:55:01;;;;;;;21.50;11.10;;;;;;;-1.44;97.05;100880.67;106492;1301;23138;-60
2022/11/30 01:57:49;;;;;;;21.60;12.50;;;;;;;-1.44;96.96;100880.27;106468;1305;138877;-60
2022/11/30 02:00:17;;;;;;;18.80;10.20;;;;;;;-1.44;96.81;100879.58;106613;1299;22390;-60
2022/11/30 02:02:55;;;;;;;14.90;8.90;;;;;;;-1.41;96.92;100879.67;106535;1306;141807;-60
2022/11/30 02:05:22;;;;;;;14.60;8.10;;;;;;;-1.39;97.22;100884.65;106319;1303;22484;-58
2022/11/30 02:07:49;;;;;;;16.80;9.10;;;;;;;-1.38;96.58;100885.13;102351;1295;138253;-58
2022/11/30 02:10:18;;;;;;;15.70;7.70;;;;;;;-1.37;96.65;100889.15;102407;1298;25326;-58
2022/11/30 02:12:54;;;;;;;17.50;8.00;;;;;;;-1.36;96.56;100889.96;102430;1298;23858;-58
2022/11/30 02:15:21;;;;;;;11.30;6.60;;;;;;;-1.36;95.71;100888.27;102380;1288;139023;-58
2022/11/30 02:18:10;;;;;;;11.60;5.90;;;;;;;-1.36;94.97;100893.15;106259;1313;22254;-59
2022/11/30 02:20:42;;;;;;;9.20;5.10;;;;;;;-1.36;94.57;100892.91;106392;1306;138117;-59
2022/11/30 02:24:11;;;;;;;11.20;4.70;;;;;;;-1.35;93.91;100888.45;106535;1306;22336;-59
2022/11/30 02:26:50;;;;;;;7.50;3.90;;;;;;;-1.34;93.15;100887.09;105370;1303;137929;-59
2022/11/30 02:29:21;;;;;;;8.40;4.80;;;;;;;-1.34;92.50;100887.63;105433;1317;22372;-59
2022/11/30 02:31:55;;;;;;;7.70;4.80;;;;;;;-1.34;92.16;100882.05;105182;1317;140436;-59
2022/11/30 02:34:24;;;;;;;10.70;5.00;;;;;;;-1.32;91.85;100875.06;105292;1317;23019;-60
2022/11/30 02:36:50;;;;;;;13.80;6.00;;;;;;;-1.29;91.64;100871.20;105306;1316;23035;-60
2022/11/30 02:39:20;;;;;;;9.80;6.10;;;;;;;-1.27;91.26;100876.14;105223;1310;139200;-60
2022/11/30 02:41:46;;;;;;;12.90;6.40;;;;;;;-1.26;90.84;100882.16;105372;1317;22279;-60
2022/11/30 02:44:13;;;;;;;11.30;6.20;;;;;;;-1.27;90.48;100886.48;105373;1316;140582;-60
2022/11/30 02:47:01;;;;;;;12.40;6.20;;;;;;;-1.26;90.41;100891.65;105468;1315;22403;-61
2022/11/30 02:49:52;;;;;;;8.60;5.40;;;;;;;-1.28;90.21;100889.47;105183;1316;139903;-59
2022/11/30 02:52:21;;;;;;;11.20;5.50;;;;;;;-1.32;89.74;100883.10;105371;1317;22138;-59
2022/11/30 02:54:47;;;;;;;9.20;5.00;;;;;;;-1.30;89.54;100885.27;105464;1308;22146;-59
2022/11/30 02:57:15;;;;;;;11.80;5.30;;;;;;;-1.32;89.04;100887.79;105229;1319;138328;-60
2022/11/30 02:59:41;;;;;;;;;;;;;;;-1.35;89.07;100886.23;105454;1312;22435;-59
2022/11/30 03:02:08;;;;;;;9.70;5.40;;;;;;;-1.38;88.56;100885.27;106016;1297;125434;-59
2022/11/30 03:04:35;;;;;;;12.20;5.50;;;;;;;-1.42;88.17;100887.08;106527;1305;22148;-59
2022/11/30 03:07:01;;;;;;;10.30;4.80;;;;;;;-1.43;88.49;100893.08;106669;1306;22211;-59
2022/11/30 03:09:28;;;;;;;;;;;;;;;-1.45;88.20;100896.67;106577;1305;139550;-59
2022/11/30 03:11:55;;;;;;;10.30;4.70;;;;;;;-1.47;88.21;100897.70;104259;1301;22947;-58
2022/11/30 03:14:22;;;;;;;8.70;4.80;;;;;;;-1.46;88.14;100894.77;102394;1304;138818;-57
2022/11/30 03:16:48;;;;;;;;;;;;;;;-1.46;88.18;100890.33;102516;1295;23383;-58
2022/11/30 03:19:15;;;;;;;11.00;5.50;;;;;;;-1.47;88.17;100884.70;102286;1298;124850;-58
2022/11/30 03:21:42;;;;;;;14.00;5.20;;;;;;;-1.49;87.69;100880.48;102416;1295;24321;-59
2022/11/30 03:24:09;;;;;;;11.80;5.90;;;;;;;-1.52;87.63;100874.67;102416;1312;22511;-58
2022/11/30 03:26:35;;;;;;;12.90;4.90;;;;;;;-1.55;87.25;100875.66;102357;1289;139784;-58
2022/11/30 03:29:02;;;;;;;12.10;5.90;;;;;;;-1.58;86.91;100873.79;102342;1298;22578;-58
2022/11/30 03:31:29;;;;;;;;;;;;;;;-1.59;86.91;100883.23;102310;1295;139405;-59
2022/11/30 03:33:56;;;;;;;8.40;4.50;;;;;;;-1.60;87.18;100878.88;102430;1299;22505;-58
2022/11/30 03:36:22;;;;;;;;;;;;;;;-1.60;86.80;100875.36;102463;1289;22471;-60
2022/11/30 03:38:49;;;;;;;11.70;4.90;;;;;;;-1.62;86.84;100857.70;102241;1284;124416;-58
2022/11/30 03:41:16;;;;;;;9.50;4.80;;;;;;;-1.64;86.51;100865.52;102430;1312;24338;-58
2022/11/30 03:43:44;;;;;;;12.30;5.60;;;;;;;-1.64;86.85;100870.70;102271;1293;138155;-58
2022/11/30 03:46:11;;;;;;;7.70;4.50;;;;;;;-1.64;86.64;100881.55;102503;1289;22491;-61
2022/11/30 03:48:39;;;;;;;12.40;7.20;;;;;;;-1.64;86.91;100884.09;102524;1305;25617;-59
2022/11/30 03:51:06;;;;;;;8.40;4.90;;;;;;;-1.65;86.95;100882.91;102310;1287;138106;-59
2022/11/30 03:53:33;;;;;;;;;;;;;;;-1.65;86.88;100879.02;102509;1313;24250;-59
2022/11/30 03:56:03;;;;;;;17.30;6.70;;;;;;;-1.66;86.93;100888.20;102348;1287;124417;-59
2022/11/30 03:58:30;;;;;;;11.90;5.50;;;;;;;-1.67;86.96;100885.24;106777;1293;23025;-61
2022/11/30 04:01:07;;;;;;;;;;;;;;;-1.68;87.09;100875.73;106699;1306;23049;-60
2022/11/30 04:03:34;;;;;;;9.90;5.50;;;;;;;-1.70;86.50;100867.52;106637;1306;125874;-60
2022/11/30 04:06:01;;;;;;;15.20;7.20;;;;;;;-1.71;86.22;100874.25;106696;1306;22255;-60
2022/11/30 04:08:28;;;;;;;10.40;5.80;;;;;;;-1.72;86.21;100876.11;106579;1296;138742;-60
2022/11/30 04:10:55;;;;;;;;;;;;;;;-1.72;86.24;100872.34;106716;1305;22415;-60
2022/11/30 04:13:22;;;;;;;10.30;6.20;;;;;;;-1.71;86.22;100876.02;106626;1306;124383;-60
2022/11/30 04:15:49;;;;;;;;;;;;;;;-1.72;86.04;100872.69;105607;1309;26537;-58
2022/11/30 04:18:16;;;;;;;13.00;7.60;;;;;;;-1.70;86.06;100876.42;106392;1312;22992;-60
2022/11/30 04:20:43;;;;;;;10.10;6.90;;;;;;;-1.71;85.96;100878.30;106517;1304;139862;-60
2022/11/30 04:23:10;;;;;;;16.40;6.70;;;;;;;-1.71;85.82;100879.58;106635;1302;22416;-59
2022/11/30 04:25:38;;;;;;;12.70;8.70;;;;;;;-1.70;86.05;100880.41;106572;1306;139422;-59
2022/11/30 04:28:05;;;;;;;20.50;12.10;;;;;;;-1.68;85.92;100888.23;106613;1305;22920;-59
2022/11/30 04:30:32;;;;;;;;;;;;;;;-1.67;85.92;100887.05;106692;1298;22387;-59
2022/11/30 04:32:58;;;;;;;49.80;21.80;;;;;;;-1.67;85.87;100882.80;106615;1297;124648;-59
2022/11/30 04:35:25;;;;;;;15.50;7.90;;;;;;;-1.68;85.84;100883.33;106635;1302;22165;-59
2022/11/30 04:37:52;;;;;;;12.60;6.10;;;;;;;-1.67;85.80;100885.72;106630;1306;139086;-59
2022/11/30 04:40:19;;;;;;;12.90;6.90;;;;;;;-1.67;85.31;100881.70;106684;1305;22206;-60
2022/11/30 04:42:45;;;;;;;;;;;;;;;-1.69;85.43;100885.81;106678;1306;22370;-59
2022/11/30 04:45:12;;;;;;;10.40;5.30;;;;;;;-1.71;84.88;100883.11;106640;1305;125173;-59
2022/11/30 04:47:39;;;;;;;12.60;5.40;;;;;;;-1.72;85.23;100883.20;106626;1289;22231;-59
2022/11/30 04:50:06;;;;;;;9.70;5.70;;;;;;;-1.74;84.93;100884.50;106569;1296;140209;-59
2022/11/30 04:52:33;;;;;;;10.70;5.30;;;;;;;-1.74;85.14;100896.61;106748;1303;22140;-60
2022/11/30 04:57:51;;;;;;;13.40;7.70;;;;;;;-1.71;85.03;100894.18;99642;1327;545048;-59
2022/11/30 05:00:18;;;;;;;12.60;6.50;;;;;;;-1.70;85.16;100897.85;101851;1317;25372;-58
2022/11/30 05:02:45;;;;;;;13.40;6.50;;;;;;;-1.68;84.94;100904.63;106020;1309;139299;-59
2022/11/30 05:05:18;;;;;;;10.50;5.20;;;;;;;-1.66;85.38;100904.79;105412;1314;22615;-59
2022/11/30 05:07:48;;;;;;;;;;;;;;;-1.65;85.44;100905.58;101370;1307;137865;-59
2022/11/30 05:10:15;;;;;;;8.70;4.90;;;;;;;-1.65;85.28;100907.52;105345;1322;23160;-59
2022/11/30 05:12:42;;;;;;;10.40;5.60;;;;;;;-1.67;85.54;100908.23;105931;1313;167153;-60
2022/11/30 05:15:09;;;;;;;13.30;7.70;;;;;;;-1.66;85.43;100912.27;106040;1312;137902;-47
2022/11/30 05:17:35;;;;;;;11.20;6.30;;;;;;;-1.67;85.60;100915.67;106094;1313;22168;-60
2022/11/30 05:20:02;;;;;;;;;;;;;;;-1.66;85.82;100919.36;106842;1299;137088;-60
2022/11/30 05:22:29;;;;;;;13.20;7.70;;;;;;;-1.64;85.81;100923.23;106889;1292;22163;-59
2022/11/30 05:24:56;;;;;;;12.50;6.30;;;;;;;-1.65;85.98;100920.66;106900;1301;22113;-60
2022/11/30 05:27:23;;;;;;;11.30;5.70;;;;;;;-1.66;85.95;100922.17;106760;1300;137355;-61
2022/11/30 05:29:49;;;;;;;12.10;6.60;;;;;;;-1.68;86.01;100919.14;106910;1292;23015;-61
2022/11/30 05:32:16;;;;;;;13.60;6.40;;;;;;;-1.72;86.06;100907.11;106758;1301;138926;-60
2022/11/30 05:34:43;;;;;;;;;;;;;;;-1.75;85.94;100910.98;106910;1285;22424;-59
2022/11/30 05:37:17;;;;;;;10.50;5.10;;;;;;;-1.75;86.02;100928.98;106864;1299;22882;-60
2022/11/30 05:39:44;;;;;;;10.20;5.60;;;;;;;-1.78;86.08;100929.91;106604;1294;22170;-60
2022/11/30 05:42:11;;;;;;;10.70;5.70;;;;;;;-1.78;86.13;100928.70;106855;1301;23008;-60
2022/11/30 05:44:37;;;;;;;10.50;5.00;;;;;;;-1.78;86.29;100925.81;106753;1300;138966;-60
2022/11/30 05:47:04;;;;;;;15.70;5.50;;;;;;;-1.77;86.60;100925.02;103482;1302;24404;-60
2022/11/30 05:49:31;;;;;;;9.40;5.50;;;;;;;-1.76;86.44;100926.40;102616;1291;138898;-60
2022/11/30 05:51:58;;;;;;;8.30;5.20;;;;;;;-1.77;86.16;100923.85;102496;1287;22495;-58
2022/11/30 05:54:25;;;;;;;12.60;6.50;;;;;;;-1.81;85.79;100923.61;102504;1294;24831;-60
2022/11/30 05:56:51;;;;;;;9.80;5.10;;;;;;;-1.86;85.91;100927.45;102448;1277;138083;-59
2022/11/30 05:59:21;;;;;;;15.10;5.30;;;;;;;-1.88;86.09;100934.05;102574;1285;25330;-59
2022/11/30 06:01:50;;;;;;;11.60;5.00;;;;;;;-1.92;85.82;100932.10;102413;1285;137229;-59
2022/11/30 06:04:17;;;;;;;13.00;7.10;;;;;;;-1.94;86.12;100933.20;102476;1285;24868;-60
2022/11/30 06:06:44;;;;;;;11.90;6.10;;;;;;;-1.96;86.06;100933.75;102496;1283;22469;-62
2022/11/30 06:09:11;;;;;;;13.30;6.20;;;;;;;-1.99;86.03;100923.73;102427;1288;138316;-59
2022/11/30 06:11:38;;;;;;;;;;;;;;;-2.03;85.90;100924.12;102537;1295;25219;-59
2022/11/30 06:14:04;;;;;;;13.00;5.00;;;;;;;-2.06;86.31;100926.34;102414;1308;123892;-59
2022/11/30 06:16:31;;;;;;;;;;;;;;;-2.07;86.04;100924.17;102628;1309;22729;-59
2022/11/30 06:18:58;;;;;;;9.40;4.40;;;;;;;-2.09;86.40;100924.62;102562;1309;25360;-59
2022/11/30 06:21:25;;;;;;;12.60;5.30;;;;;;;-2.07;86.37;100930.20;102476;1309;139751;-58
2022/11/30 06:23:51;;;;;;;9.80;4.10;;;;;;;-2.07;86.56;100931.76;102567;1285;25386;-59
2022/11/30 06:26:18;;;;;;;9.60;4.30;;;;;;;-2.07;86.52;100930.38;102488;1294;139261;-59
2022/11/30 06:28:45;;;;;;;8.50;4.20;;;;;;;-2.06;86.84;100930.77;102644;1287;25330;-59
2022/11/30 06:31:14;;;;;;;18.60;8.10;;;;;;;-2.05;86.71;100938.36;106489;1304;22300;-60
2022/11/30 06:33:41;;;;;;;13.10;6.60;;;;;;;-2.04;86.51;100943.23;106723;1300;137998;-60
2022/11/30 06:36:08;;;;;;;;;;;;;;;-2.03;86.60;100947.27;106893;1288;22351;-60
2022/11/30 06:38:35;;;;;;;12.30;6.10;;;;;;;-2.03;86.38;100954.19;106727;1295;125218;-60
2022/11/30 06:41:06;;;;;;;16.30;8.50;;;;;;;-2.06;86.20;100956.61;106866;1301;22097;-59
2022/11/30 06:43:36;;;;;;;14.40;6.80;;;;;;;-2.09;86.10;100960.62;106705;1294;136932;-58
2022/11/30 06:46:04;;;;;;;13.80;5.90;;;;;;;-2.10;86.09;100963.17;105791;1292;25274;-59
2022/11/30 06:48:31;;;;;;;13.70;6.40;;;;;;;-2.10;86.12;100962.34;106574;1295;22807;-59
2022/11/30 06:50:59;;;;;;;12.80;5.90;;;;;;;-2.10;85.87;100967.48;106691;1302;137918;-59
2022/11/30 06:53:26;;;;;;;12.80;6.50;;;;;;;-2.10;85.74;100962.64;106838;1294;22939;-61
2022/11/30 06:55:53;;;;;;;9.50;5.10;;;;;;;-2.09;86.02;100967.06;106761;1295;139025;-60
2022/11/30 06:58:19;;;;;;;13.20;6.00;;;;;;;-2.08;86.00;100968.89;106757;1303;22174;-60
2022/11/30 07:00:46;;;;;;;19.60;6.00;;;;;;;-2.05;85.95;100972.35;106829;1294;22150;-60
2022/11/30 07:03:13;;;;;;;;;;;;;;;-2.03;85.96;100973.58;106763;1301;137815;-60
2022/11/30 13:27:17;;;;;;;12.60;6.90;;;;;;;-2.49;83.42;100946.50;99960;1327;557682;-63
2022/11/30 13:30:18;;;;;;;10.50;5.70;;;;;;;-2.33;82.45;100945.20;104733;1312;121850;-64
2022/11/30 13:32:44;;;;;;;12.90;6.40;;;;;;;-2.28;82.32;100940.13;105488;1301;137782;-64
2022/11/30 13:35:27;;;;;;;15.00;6.90;;;;;;;-2.23;82.49;100940.02;105490;1318;22154;-64
2022/11/30 13:38:17;;;;;;;13.20;6.30;;;;;;;-2.19;82.38;100939.25;105377;1318;138915;-65
2022/11/30 13:41:05;;;;;;;15.40;6.10;;;;;;;-2.15;81.93;100936.75;105602;1300;22142;-65
2022/11/30 13:43:45;;;;;;;17.20;8.70;;;;;;;-2.14;81.85;100934.36;105262;1318;137534;-64
2022/11/30 13:46:14;;;;;;;28.20;15.40;;;;;;;-2.13;81.94;100935.88;105363;1318;22450;-64
2022/11/30 13:48:42;;;;;;;23.40;12.10;;;;;;;-2.16;81.82;100923.20;105109;1323;23205;-64
2022/11/30 13:51:09;;;;;;;20.70;9.60;;;;;;;-2.14;81.75;100928.94;105311;1318;137151;-64
2022/11/30 13:53:37;;;;;;;;;;;;;;;-2.15;81.46;100924.77;105500;1318;22433;-64
2022/11/30 13:56:16;;;;;;;15.30;7.70;;;;;;;-2.15;81.29;100923.07;105379;1318;125408;-60
2022/11/30 13:59:22;;;;;;;15.60;7.10;;;;;;;-2.20;80.81;100917.11;105471;1301;22439;-60
2022/11/30 14:01:50;;;;;;;23.90;10.80;;;;;;;-2.24;80.72;100922.10;104744;1307;138437;-60
2022/11/30 14:04:16;;;;;;;25.30;11.70;;;;;;;-2.25;80.89;100927.15;104892;1324;22219;-60
2022/11/30 14:06:54;;;;;;;16.20;8.20;;;;;;;-2.26;80.96;100926.20;104864;1299;23008;-61
2022/11/30 14:09:36;;;;;;;18.40;7.60;;;;;;;-2.27;80.75;100930.22;104699;1317;139036;-61
2022/11/30 14:12:31;;;;;;;20.30;10.70;;;;;;;-2.28;80.66;100928.86;105166;1320;22337;-61
2022/11/30 14:14:58;;;;;;;21.90;9.00;;;;;;;-2.25;80.86;100932.91;105085;1308;138159;-61
2022/11/30 14:17:26;;;;;;;22.00;10.90;;;;;;;-2.22;80.96;100936.71;105081;1320;22196;-60
2022/11/30 14:20:14;;;;;;;26.90;10.60;;;;;;;-2.19;81.02;100941.63;104985;1319;137988;-60
2022/11/30 14:22:41;;;;;;;23.40;10.10;;;;;;;-2.16;80.76;100942.53;104871;1321;22185;-61
2022/11/30 14:25:12;;;;;;;16.80;8.90;;;;;;;-2.17;80.38;100938.73;104876;1309;22280;-58
2022/11/30 14:27:38;;;;;;;29.40;13.40;;;;;;;-2.17;80.54;100943.02;104847;1320;137480;-65
2022/11/30 14:30:06;;;;;;;30.20;14.50;;;;;;;-2.21;80.41;100936.94;104978;1320;22183;-65
2022/11/30 14:32:36;;;;;;;26.40;10.80;;;;;;;-2.18;80.40;100943.43;104862;1320;137246;-65
2022/11/30 14:35:10;;;;;;;24.90;9.40;;;;;;;-2.20;80.46;100941.88;105027;1318;22348;-65
2022/11/30 14:37:54;;;;;;;21.00;11.00;;;;;;;-2.24;79.99;100947.92;105334;1317;137590;-65
2022/11/30 14:40:22;;;;;;;23.80;9.60;;;;;;;-2.27;79.87;100947.66;105519;1309;22237;-65
2022/11/30 14:42:51;;;;;;;23.90;9.90;;;;;;;-2.30;79.83;100951.84;105508;1317;22234;-65
2022/11/30 14:45:20;;;;;;;18.60;7.80;;;;;;;-2.33;79.76;100946.80;105492;1315;139062;-65
2022/11/30 14:47:50;;;;;;;16.10;6.90;;;;;;;-2.36;79.66;100943.69;105720;1300;22152;-65
2022/11/30 14:50:22;;;;;;;12.80;6.60;;;;;;;-2.37;79.91;100943.29;105593;1299;139942;-65
2022/11/30 14:53:14;;;;;;;14.70;6.30;;;;;;;-2.38;79.55;100944.46;105649;1309;22197;-65
2022/11/30 14:55:51;;;;;;;78.40;35.80;;;;;;;-2.38;79.43;100949.44;105418;1314;139996;-61
2022/11/30 14:58:21;;;;;;;25.60;13.00;;;;;;;-2.40;79.23;100951.15;105628;1315;22258;-61
2022/11/30 15:00:48;;;;;;;20.30;8.90;;;;;;;-2.39;79.46;100952.91;105761;1314;23302;-61
2022/11/30 15:03:27;;;;;;;;;;;;;;;-2.39;79.41;100951.42;105530;1316;137254;-61
2022/11/30 15:06:03;;;;;;;25.20;11.00;;;;;;;-2.38;79.28;100946.00;105612;1305;22223;-60
2022/11/30 15:08:47;;;;;;;23.80;10.60;;;;;;;-2.37;79.22;100953.27;105541;1314;139435;-61
2022/11/30 15:11:15;;;;;;;21.70;10.20;;;;;;;-2.39;79.12;100957.69;105882;1306;22130;-61
2022/11/30 15:13:49;;;;;;;24.00;9.60;;;;;;;-2.43;79.06;100960.66;106025;1311;138605;-61
2022/11/30 15:16:20;;;;;;;32.50;15.00;;;;;;;-2.45;79.09;100962.85;106127;1310;22274;-60
2022/11/30 15:18:47;;;;;;;27.10;14.30;;;;;;;-2.46;79.05;100968.45;105929;1299;22170;-60
2022/11/30 15:21:25;;;;;;;27.30;13.90;;;;;;;-2.46;78.98;100969.05;106030;1311;139000;-60
2022/11/30 15:23:56;;;;;;;15.80;8.70;;;;;;;-2.47;79.03;100972.80;106022;1311;22902;-60
2022/11/30 15:26:35;;;;;;;19.90;9.10;;;;;;;-2.46;79.01;100971.35;105988;1311;138763;-60
2022/11/30 15:29:07;;;;;;;15.60;9.40;;;;;;;-2.46;78.98;100973.80;106013;1297;22222;-59
2022/11/30 15:31:36;;;;;;;20.90;10.30;;;;;;;-2.46;78.94;100972.08;105928;1311;138497;-59
2022/11/30 15:34:03;;;;;;;22.80;10.20;;;;;;;-2.46;79.02;100973.48;106159;1308;22136;-59
2022/11/30 15:36:34;;;;;;;21.70;11.70;;;;;;;-2.44;78.99;100974.71;106000;1312;22218;-59
2022/11/30 15:39:02;;;;;;;53.90;24.50;;;;;;;-2.42;78.89;100971.09;105924;1311;137639;-61
2022/11/30 15:41:29;;;;;;;46.60;23.20;;;;;;;-2.39;79.13;100971.96;106030;1311;22305;-58
2022/11/30 15:43:56;;;;;;;44.20;20.80;;;;;;;-2.38;79.03;100975.79;105948;1310;140579;-59
2022/11/30 15:46:33;;;;;;;35.60;18.20;;;;;;;-2.37;78.91;100976.18;106176;1295;22231;-58
2022/11/30 15:49:15;;;;;;;28.20;14.70;;;;;;;-2.35;78.93;100981.73;106149;1311;22956;-59
2022/11/30 15:51:46;;;;;;;31.90;16.60;;;;;;;-2.34;78.79;100980.17;106052;1311;138100;-59
2022/11/30 15:54:14;;;;;;;27.20;17.20;;;;;;;-2.32;78.72;100979.31;106161;1300;22274;-58
2022/11/30 15:56:40;;;;;;;31.50;17.70;;;;;;;-2.31;78.94;100976.52;106022;1311;138334;-58
2022/11/30 15:59:10;;;;;;;29.00;16.10;;;;;;;-2.31;78.96;100976.13;106137;1311;23111;-58
2022/11/30 16:02:15;;;;;;;24.20;13.70;;;;;;;-2.32;78.72;100970.35;106033;1303;138800;-58
2022/11/30 16:04:57;;;;;;;22.70;11.60;;;;;;;-2.32;78.70;100973.39;106300;1309;22142;-58
2022/11/30 16:07:25;;;;;;;21.30;9.40;;;;;;;-2.32;78.67;100976.28;106178;1309;139933;-59
2022/11/30 16:10:02;;;;;;;20.30;10.00;;;;;;;-2.34;78.58;100972.40;106152;1309;23398;-58
2022/11/30 16:12:29;;;;;;;21.60;9.60;;;;;;;-2.35;78.44;100973.35;106169;1309;22936;-58
2022/11/30 16:14:56;;;;;;;;;;;;;;;-2.36;78.88;100973.58;106145;1303;138933;-58
2022/11/30 16:17:22;;;;;;;22.70;10.20;;;;;;;-2.36;78.59;100970.02;106218;1302;22180;-58
2022/11/30 16:19:49;;;;;;;20.60;10.40;;;;;;;-2.37;78.54;100976.38;106235;1299;139340;-59
2022/11/30 16:22:16;;;;;;;25.00;12.80;;;;;;;-2.38;78.56;100970.20;106214;1303;22188;-59
2022/11/30 16:24:42;;;;;;;27.40;13.10;;;;;;;-2.37;78.62;100975.95;106203;1310;22118;-59
2022/11/30 16:27:17;;;;;;;22.90;12.30;;;;;;;-2.36;78.77;100974.52;105746;1310;138296;-58
2022/11/30 16:29:44;;;;;;;27.10;11.40;;;;;;;-2.37;78.83;100976.52;106303;1309;22144;-58
2022/11/30 16:32:17;;;;;;;30.00;13.60;;;;;;;-2.37;78.71;100976.21;106082;1310;138598;-59
2022/11/30 16:34:46;;;;;;;40.20;15.60;;;;;;;-2.38;78.72;100975.00;106233;1309;22100;-60
2022/11/30 16:37:13;;;;;;;35.60;15.10;;;;;;;-2.37;78.54;100978.38;106177;1303;22178;-60
2022/11/30 16:39:40;;;;;;;38.50;15.50;;;;;;;-2.38;78.76;100980.23;106192;1306;137999;-58
2022/11/30 16:42:10;;;;;;;33.50;15.30;;;;;;;-2.41;78.78;100981.30;106214;1309;23058;-58
2022/11/30 16:44:37;;;;;;;40.10;19.10;;;;;;;-2.42;78.88;100980.55;106210;1309;137541;-59
2022/11/30 16:47:04;;;;;;;29.60;13.60;;;;;;;-2.43;78.71;100978.13;106207;1309;22155;-59
2022/11/30 16:49:32;;;;;;;33.70;17.00;;;;;;;-2.42;78.91;100978.64;106093;1296;138801;-58
2022/11/30 16:51:58;;;;;;;42.40;19.70;;;;;;;-2.42;78.79;100972.17;106213;1311;22214;-58
2022/11/30 16:54:25;;;;;;;36.10;17.10;;;;;;;-2.40;78.87;100975.41;106380;1301;22941;-58
2022/11/30 16:56:52;;;;;;;30.40;14.90;;;;;;;-2.38;79.09;100973.23;106138;1303;138494;-59
2022/11/30 16:59:19;;;;;;;28.30;14.00;;;;;;;-2.35;79.03;100970.71;106191;1296;22286;-58
2022/11/30 17:01:47;;;;;;;32.90;14.10;;;;;;;-2.32;79.17;100972.71;106073;1297;138450;-60
2022/11/30 17:04:21;;;;;;;37.90;15.00;;;;;;;-2.33;79.20;100966.17;106177;1294;22148;-58
2022/11/30 17:06:48;;;;;;;28.00;13.70;;;;;;;-2.27;79.32;100970.79;106097;1303;22917;-58
2022/11/30 17:09:17;;;;;;;36.00;16.00;;;;;;;-2.24;79.20;100971.95;106174;1309;138782;-58
2022/11/30 17:11:44;;;;;;;32.60;14.60;;;;;;;-2.23;79.10;100963.97;106150;1303;22151;-59
2022/11/30 17:14:11;;;;;;;25.80;11.60;;;;;;;-2.20;79.23;100964.11;105998;1304;137518;-61
2022/11/30 17:16:39;;;;;;;40.90;13.80;;;;;;;-2.19;79.10;100962.96;106216;1297;22313;-59
2022/11/30 17:19:06;;;;;;;31.40;12.40;;;;;;;-2.19;79.27;100964.77;106091;1294;22172;-58
2022/11/30 17:21:36;;;;;;;27.40;12.30;;;;;;;-2.19;79.01;100958.89;106239;1304;138738;-59
2022/11/30 17:24:03;;;;;;;25.60;11.20;;;;;;;-2.21;78.96;100964.67;106170;1309;22368;-58
2022/11/30 17:26:30;;;;;;;30.40;12.70;;;;;;;-2.22;79.06;100963.18;106098;1309;137503;-58
2022/11/30 17:28:56;;;;;;;26.50;13.20;;;;;;;-2.23;79.10;100966.30;106213;1309;22339;-58
2022/11/30 17:31:23;;;;;;;24.90;10.90;;;;;;;-2.23;78.97;100965.77;106036;1304;138562;-59
2022/11/30 17:33:50;;;;;;;28.50;11.20;;;;;;;-2.22;79.22;100966.77;106168;1293;22206;-58
2022/11/30 17:36:17;;;;;;;23.90;10.40;;;;;;;-2.21;79.16;100964.95;106189;1310;22168;-58
2022/11/30 17:38:44;;;;;;;25.90;11.40;;;;;;;-2.20;79.37;100961.98;106140;1297;140084;-58
2022/11/30 17:41:12;;;;;;;;;;;;;;;-2.18;79.59;100956.79;106198;1310;22341;-59
2022/11/30 17:43:44;;;;;;;28.50;10.90;;;;;;;-2.15;79.67;100955.83;106100;1301;126352;-59
2022/11/30 17:46:14;;;;;;;24.80;12.10;;;;;;;-2.13;79.63;100952.94;106145;1295;23356;-57
2022/11/30 17:48:41;;;;;;;26.10;12.00;;;;;;;-2.10;79.49;100953.53;106115;1311;22128;-58